Terminal Aerodrome Forecast
Issued by NWS

Home | Current Version | Previous Version | Text Only | Print | Product List | Glossary On
Versions: 1 2 3 4 5 6 7 8 9 10 11 12
000
FTUS46 KEKA 052324
TAFUKI
TAF
KUKI 052324Z 0600/0624 15011G19KT P6SM SKC
     FM060200 VRB05KT P6SM SKC
     FM061200 00000KT P6SM SKC
     FM062000 16005KT P6SM SKC=

USA.gov is the U.S. government's official web portal to all federal, state and local government web resources and services.